Search for airport 
image banner adimage banner ad
image banner ad

DAUA - Adrar / Touat Cheikh Sidi Mohamed Belkebir

Located in Adrar, Algeria

ICAO - DAUA, IATA - AZR

Data provided by Airmate  

General information

Coordinates: N27°50'21" W0°11'7"
Elevation is 918 feet MSL.
 
Rated:
View ratings: [VIEW]


View others Airports in Adrar Province

Operational data

Open for public use
Current time UTC:
Current local time:
Weather
METAR: DAUA 070100Z 05008KT 4000 HZ NSC 36/09 Q1009
TAF: TAF DAUA 062300Z 0700/0724 04010KT 6000 NSC TEMPO 0700/0706 3000 HZ BECMG 0702/0705 12012KT PROB40 TEMPO 0712/0716 12015G30KT 1500 BLSA FEW033CB BECMG 0718/0721 02010KT
View NOTAMs / SUP AIP / TFR affecting this airport [VIEW]
Communications frequencies: [VIEW]

Runways:

RWY identifierQFULength (ft)Width (ft)SurfaceLDA (ft)
0440°9843148ASP
22220°9843148

Airport contact information

Address: Adrar Algeria

Satellite view of DAUA